sensor_id;sensor_type;location;lat;lon;timestamp;temperature;humidity
62912;DHT22;49111;51.028;4.218;2023-02-18T06:47:52;11.30;99.90
62912;DHT22;49111;51.028;4.218;2023-02-18T06:50:17;11.30;99.90
62912;DHT22;49111;51.028;4.218;2023-02-18T06:52:44;11.40;99.90
62912;DHT22;49111;51.028;4.218;2023-02-18T06:55:10;11.40;99.90
62912;DHT22;49111;51.028;4.218;2023-02-18T06:57:35;11.50;99.90
62912;DHT22;49111;51.028;4.218;2023-02-18T07:00:01;11.60;99.90
62912;DHT22;49111;51.028;4.218;2023-02-18T07:02:28;11.60;99.90
62912;DHT22;49111;51.028;4.218;2023-02-18T07:04:53;11.60;99.90
62912;DHT22;49111;51.028;4.218;2023-02-18T07:07:19;11.60;99.90
62912;DHT22;49111;51.028;4.218;2023-02-18T07:09:45;11.60;99.90
62912;DHT22;49111;51.028;4.218;2023-02-18T07:12:11;11.60;99.90
62912;DHT22;49111;51.028;4.218;2023-02-18T07:14:36;11.60;99.90
62912;DHT22;49111;51.028;4.218;2023-02-18T07:17:02;11.60;99.90
62912;DHT22;49111;51.028;4.218;2023-02-18T07:19:29;11.50;99.90
62912;DHT22;49111;51.028;4.218;2023-02-18T07:21:55;11.50;99.90
62912;DHT22;49111;51.028;4.218;2023-02-18T07:24:22;11.40;99.90
62912;DHT22;49111;51.028;4.218;2023-02-18T07:26:48;11.50;99.90
62912;DHT22;49111;51.028;4.218;2023-02-18T07:29:14;11.50;99.90
62912;DHT22;49111;51.028;4.218;2023-02-18T07:31:40;11.60;99.90
62912;DHT22;49111;51.028;4.218;2023-02-18T07:34:08;11.60;99.90
62912;DHT22;49111;51.028;4.218;2023-02-18T07:36:33;11.50;99.90
62912;DHT22;49111;51.028;4.218;2023-02-18T07:39:03;11.60;99.90
62912;DHT22;49111;51.028;4.218;2023-02-18T07:41:29;11.70;99.90
62912;DHT22;49111;51.028;4.218;2023-02-18T07:43:55;11.80;99.90
62912;DHT22;49111;51.028;4.218;2023-02-18T07:46:21;11.80;99.90
62912;DHT22;49111;51.028;4.218;2023-02-18T07:48:47;11.80;99.90
62912;DHT22;49111;51.028;4.218;2023-02-18T07:51:12;11.90;99.90
62912;DHT22;49111;51.028;4.218;2023-02-18T07:53:39;11.80;99.90
62912;DHT22;49111;51.028;4.218;2023-02-18T07:56:05;11.70;99.90
62912;DHT22;49111;51.028;4.218;2023-02-18T07:58:34;11.70;99.90
62912;DHT22;49111;51.028;4.218;2023-02-18T08:01:04;11.70;99.90
62912;DHT22;49111;51.028;4.218;2023-02-18T08:03:31;11.70;99.90
62912;DHT22;49111;51.028;4.218;2023-02-18T08:05:57;11.80;99.90
62912;DHT22;49111;51.028;4.218;2023-02-18T08:08:25;11.80;99.90
62912;DHT22;49111;51.028;4.218;2023-02-18T08:10:53;11.90;99.90
62912;DHT22;49111;51.028;4.218;2023-02-18T08:13:19;11.90;99.90
62912;DHT22;49111;51.028;4.218;2023-02-18T08:15:45;12.10;99.90
62912;DHT22;49111;51.028;4.218;2023-02-18T08:18:19;12.20;99.90
62912;DHT22;49111;51.028;4.218;2023-02-18T08:20:47;12.30;99.90
62912;DHT22;49111;51.028;4.218;2023-02-18T08:23:14;12.20;99.90
62912;DHT22;49111;51.028;4.218;2023-02-18T08:25:51;12.20;99.90
62912;DHT22;49111;51.028;4.218;2023-02-18T08:28:20;12.10;99.90
62912;DHT22;49111;51.028;4.218;2023-02-18T08:30:48;12.10;99.90
62912;DHT22;49111;51.028;4.218;2023-02-18T08:33:14;12.20;99.90
62912;DHT22;49111;51.028;4.218;2023-02-18T08:35:41;12.30;99.90
62912;DHT22;49111;51.028;4.218;2023-02-18T08:38:07;12.30;99.90
62912;DHT22;49111;51.028;4.218;2023-02-18T08:40:33;12.20;99.90
62912;DHT22;49111;51.028;4.218;2023-02-18T08:42:58;12.20;99.90
62912;DHT22;49111;51.028;4.218;2023-02-18T08:45:24;12.20;99.90
62912;DHT22;49111;51.028;4.218;2023-02-18T08:47:50;12.20;99.90
62912;DHT22;49111;51.028;4.218;2023-02-18T08:50:17;12.30;99.90
62912;DHT22;49111;51.028;4.218;2023-02-18T08:52:46;12.30;99.90
62912;DHT22;49111;51.028;4.218;2023-02-18T08:55:12;12.30;99.90
62912;DHT22;49111;51.028;4.218;2023-02-18T08:57:38;12.30;99.90
62912;DHT22;49111;51.028;4.218;2023-02-18T09:00:05;12.30;99.90
62912;DHT22;49111;51.028;4.218;2023-02-18T09:02:31;12.30;99.90
62912;DHT22;49111;51.028;4.218;2023-02-18T09:04:59;12.40;99.90
62912;DHT22;49111;51.028;4.218;2023-02-18T09:07:24;12.50;99.90
62912;DHT22;49111;51.028;4.218;2023-02-18T09:09:50;12.50;99.90
62912;DHT22;49111;51.028;4.218;2023-02-18T09:12:16;12.50;99.90
62912;DHT22;49111;51.028;4.218;2023-02-18T09:14:42;12.40;99.90
62912;DHT22;49111;51.028;4.218;2023-02-18T09:17:07;12.30;99.90
62912;DHT22;49111;51.028;4.218;2023-02-18T09:19:33;12.40;99.90
62912;DHT22;49111;51.028;4.218;2023-02-18T09:21:59;12.50;99.90
62912;DHT22;49111;51.028;4.218;2023-02-18T09:24:25;12.50;99.90
62912;DHT22;49111;51.028;4.218;2023-02-18T09:26:50;12.50;99.90
62912;DHT22;49111;51.028;4.218;2023-02-18T09:29:16;12.50;99.90
62912;DHT22;49111;51.028;4.218;2023-02-18T09:31:44;12.50;99.90
62912;DHT22;49111;51.028;4.218;2023-02-18T09:34:11;12.70;99.90
62912;DHT22;49111;51.028;4.218;2023-02-18T09:36:38;12.70;99.90
62912;DHT22;49111;51.028;4.218;2023-02-18T09:39:05;12.70;99.90
62912;DHT22;49111;51.028;4.218;2023-02-18T09:41:44;12.60;99.90
62912;DHT22;49111;51.028;4.218;2023-02-18T09:46:47;12.70;99.90
62912;DHT22;49111;51.028;4.218;2023-02-18T09:49:17;12.70;99.90
62912;DHT22;49111;51.028;4.218;2023-02-18T09:51:44;12.60;99.90
62912;DHT22;49111;51.028;4.218;2023-02-18T09:54:13;12.60;99.90
62912;DHT22;49111;51.028;4.218;2023-02-18T09:56:40;12.70;99.90
62912;DHT22;49111;51.028;4.218;2023-02-18T09:59:17;12.80;99.90
62912;DHT22;49111;51.028;4.218;2023-02-18T10:01:46;12.80;99.90
62912;DHT22;49111;51.028;4.218;2023-02-18T10:04:17;12.90;99.90
62912;DHT22;49111;51.028;4.218;2023-02-18T10:06:48;12.90;99.90
62912;DHT22;49111;51.028;4.218;2023-02-18T10:09:33;12.80;99.90
62912;DHT22;49111;51.028;4.218;2023-02-18T10:12:15;12.80;99.90
62912;DHT22;49111;51.028;4.218;2023-02-18T10:14:56;12.70;99.90
62912;DHT22;49111;51.028;4.218;2023-02-18T10:17:25;12.70;99.90
62912;DHT22;49111;51.028;4.218;2023-02-18T10:19:53;12.60;99.90
62912;DHT22;49111;51.028;4.218;2023-02-18T10:22:19;12.70;99.90
62912;DHT22;49111;51.028;4.218;2023-02-18T10:24:56;12.80;99.90
62912;DHT22;49111;51.028;4.218;2023-02-18T10:27:31;12.80;99.90
62912;DHT22;49111;51.028;4.218;2023-02-18T10:32:44;12.80;99.90
62912;DHT22;49111;51.028;4.218;2023-02-18T10:35:24;12.80;99.90
62912;DHT22;49111;51.028;4.218;2023-02-18T10:38:15;12.80;99.90
62912;DHT22;49111;51.028;4.218;2023-02-18T10:51:22;12.80;99.90
62912;DHT22;49111;51.028;4.218;2023-02-18T10:53:51;12.80;99.90
62912;DHT22;49111;51.028;4.218;2023-02-18T10:56:40;12.80;99.90
62912;DHT22;49111;51.028;4.218;2023-02-18T10:59:19;12.80;99.90
62912;DHT22;49111;51.028;4.218;2023-02-18T11:01:59;12.80;99.90
62912;DHT22;49111;51.028;4.218;2023-02-18T11:04:39;12.80;99.90
62912;DHT22;49111;51.028;4.218;2023-02-18T11:07:21;12.90;99.90
62912;DHT22;49111;51.028;4.218;2023-02-18T11:12:49;12.70;99.90
62912;DHT22;49111;51.028;4.218;2023-02-18T11:15:22;12.70;99.90
62912;DHT22;49111;51.028;4.218;2023-02-18T11:17:55;12.80;99.90
62912;DHT22;49111;51.028;4.218;2023-02-18T11:23:20;12.80;99.90
62912;DHT22;49111;51.028;4.218;2023-02-18T11:26:02;12.80;99.90
62912;DHT22;49111;51.028;4.218;2023-02-18T11:28:47;12.90;99.90
62912;DHT22;49111;51.028;4.218;2023-02-18T11:31:31;12.90;99.90
62912;DHT22;49111;51.028;4.218;2023-02-18T11:34:02;12.90;99.90
62912;DHT22;49111;51.028;4.218;2023-02-18T11:36:32;12.90;99.90
62912;DHT22;49111;51.028;4.218;2023-02-18T11:39:26;13.00;99.90
62912;DHT22;49111;51.028;4.218;2023-02-18T11:42:02;13.00;99.90
62912;DHT22;49111;51.028;4.218;2023-02-18T11:44:38;13.10;99.90
62912;DHT22;49111;51.028;4.218;2023-02-18T11:47:18;13.20;99.90
62912;DHT22;49111;51.028;4.218;2023-02-18T11:50:20;13.30;99.90
62912;DHT22;49111;51.028;4.218;2023-02-18T11:52:48;13.30;99.90
62912;DHT22;49111;51.028;4.218;2023-02-18T11:55:27;13.30;99.90
62912;DHT22;49111;51.028;4.218;2023-02-18T11:58:03;13.30;99.90
62912;DHT22;49111;51.028;4.218;2023-02-18T12:00:42;13.40;99.90
62912;DHT22;49111;51.028;4.218;2023-02-18T12:06:13;13.20;99.90
62912;DHT22;49111;51.028;4.218;2023-02-18T12:09:02;13.20;99.90
62912;DHT22;49111;51.028;4.218;2023-02-18T12:11:38;13.10;99.90
62912;DHT22;49111;51.028;4.218;2023-02-18T12:14:11;13.10;99.90
62912;DHT22;49111;51.028;4.218;2023-02-18T12:30:34;12.90;99.90
62912;DHT22;49111;51.028;4.218;2023-02-18T12:39:01;12.80;99.90
62912;DHT22;49111;51.028;4.218;2023-02-18T12:41:53;13.00;99.90
62912;DHT22;49111;51.028;4.218;2023-02-18T13:03:10;12.70;99.90
62912;DHT22;49111;51.028;4.218;2023-02-18T13:18:00;13.10;99.90
62912;DHT22;49111;51.028;4.218;2023-02-18T13:21:16;13.10;99.90
62912;DHT22;49111;51.028;4.218;2023-02-18T13:23:29;13.20;99.90
62912;DHT22;49111;51.028;4.218;2023-02-18T13:25:59;13.30;99.90
62912;DHT22;49111;51.028;4.218;2023-02-18T13:28:43;13.30;99.90
62912;DHT22;49111;51.028;4.218;2023-02-18T13:31:31;13.20;99.90
62912;DHT22;49111;51.028;4.218;2023-02-18T13:34:07;13.20;99.90
62912;DHT22;49111;51.028;4.218;2023-02-18T13:39:24;13.10;99.90
62912;DHT22;49111;51.028;4.218;2023-02-18T13:52:49;13.20;99.90
62912;DHT22;49111;51.028;4.218;2023-02-18T13:55:22;13.20;99.90
62912;DHT22;49111;51.028;4.218;2023-02-18T13:57:53;13.30;99.90
62912;DHT22;49111;51.028;4.218;2023-02-18T14:00:23;13.30;99.90
62912;DHT22;49111;51.028;4.218;2023-02-18T14:03:30;13.20;99.90
62912;DHT22;49111;51.028;4.218;2023-02-18T14:06:00;13.30;99.90
62912;DHT22;49111;51.028;4.218;2023-02-18T14:08:32;13.40;99.90
62912;DHT22;49111;51.028;4.218;2023-02-18T14:14:35;13.40;99.90
62912;DHT22;49111;51.028;4.218;2023-02-18T14:19:40;13.50;99.90
62912;DHT22;49111;51.028;4.218;2023-02-18T14:25:20;13.40;99.90
62912;DHT22;49111;51.028;4.218;2023-02-18T14:27:52;13.30;99.90
62912;DHT22;49111;51.028;4.218;2023-02-18T14:30:39;13.30;99.90
62912;DHT22;49111;51.028;4.218;2023-02-18T14:33:14;13.40;99.90
62912;DHT22;49111;51.028;4.218;2023-02-18T14:35:52;13.50;99.90
62912;DHT22;49111;51.028;4.218;2023-02-18T14:41:33;13.30;99.90
62912;DHT22;49111;51.028;4.218;2023-02-18T14:52:27;13.30;99.90
62912;DHT22;49111;51.028;4.218;2023-02-18T14:54:55;13.30;99.90
62912;DHT22;49111;51.028;4.218;2023-02-18T14:57:44;13.20;99.90
62912;DHT22;49111;51.028;4.218;2023-02-18T15:00:23;13.30;99.90
62912;DHT22;49111;51.028;4.218;2023-02-18T15:03:00;13.30;99.90
62912;DHT22;49111;51.028;4.218;2023-02-18T15:05:31;13.20;99.90
62912;DHT22;49111;51.028;4.218;2023-02-18T15:07:58;13.20;99.90
62912;DHT22;49111;51.028;4.218;2023-02-18T15:11:01;13.20;99.90
62912;DHT22;49111;51.028;4.218;2023-02-18T15:14:02;13.10;99.90
62912;DHT22;49111;51.028;4.218;2023-02-18T15:16:37;13.10;99.90
62912;DHT22;49111;51.028;4.218;2023-02-18T15:19:12;13.10;99.90
62912;DHT22;49111;51.028;4.218;2023-02-18T15:21:46;13.00;99.90
62912;DHT22;49111;51.028;4.218;2023-02-18T15:24:24;13.10;99.90
62912;DHT22;49111;51.028;4.218;2023-02-18T15:27:16;13.20;99.90
62912;DHT22;49111;51.028;4.218;2023-02-18T15:29:51;13.20;99.90
62912;DHT22;49111;51.028;4.218;2023-02-18T15:32:26;13.20;99.90
62912;DHT22;49111;51.028;4.218;2023-02-18T15:35:01;13.20;99.90
62912;DHT22;49111;51.028;4.218;2023-02-18T15:37:30;13.30;99.90
62912;DHT22;49111;51.028;4.218;2023-02-18T15:39:56;13.30;99.90
62912;DHT22;49111;51.028;4.218;2023-02-18T15:42:28;13.30;99.90
62912;DHT22;49111;51.028;4.218;2023-02-18T15:47:42;13.30;99.90
62912;DHT22;49111;51.028;4.218;2023-02-18T15:50:27;13.40;99.90
62912;DHT22;49111;51.028;4.218;2023-02-18T15:53:07;13.40;99.90
62912;DHT22;49111;51.028;4.218;2023-02-18T15:55:40;13.30;99.90
62912;DHT22;49111;51.028;4.218;2023-02-18T15:58:30;13.30;99.90
62912;DHT22;49111;51.028;4.218;2023-02-18T16:01:03;13.30;99.90
62912;DHT22;49111;51.028;4.218;2023-02-18T16:03:44;13.20;99.90
62912;DHT22;49111;51.028;4.218;2023-02-18T16:06:23;13.20;99.90
62912;DHT22;49111;51.028;4.218;2023-02-18T16:11:54;12.90;99.90
62912;DHT22;49111;51.028;4.218;2023-02-18T16:14:44;13.00;99.90
62912;DHT22;49111;51.028;4.218;2023-02-18T16:19:57;13.10;99.90
62912;DHT22;49111;51.028;4.218;2023-02-18T16:25:00;12.90;99.90
62912;DHT22;49111;51.028;4.218;2023-02-18T16:27:32;12.90;99.90
62912;DHT22;49111;51.028;4.218;2023-02-18T16:30:22;13.00;99.90
62912;DHT22;49111;51.028;4.218;2023-02-18T16:32:49;13.00;99.90
62912;DHT22;49111;51.028;4.218;2023-02-18T16:35:17;13.00;99.90
62912;DHT22;49111;51.028;4.218;2023-02-18T16:41:14;13.00;99.90
62912;DHT22;49111;51.028;4.218;2023-02-18T16:43:43;13.00;99.90
62912;DHT22;49111;51.028;4.218;2023-02-18T16:46:14;12.90;99.90
62912;DHT22;49111;51.028;4.218;2023-02-18T16:48:44;12.90;99.90
62912;DHT22;49111;51.028;4.218;2023-02-18T16:51:30;12.80;99.90
62912;DHT22;49111;51.028;4.218;2023-02-18T16:53:58;12.90;99.90
62912;DHT22;49111;51.028;4.218;2023-02-18T16:56:26;12.90;99.90
62912;DHT22;49111;51.028;4.218;2023-02-18T16:58:53;13.00;99.90
62912;DHT22;49111;51.028;4.218;2023-02-18T17:01:28;13.00;99.90
62912;DHT22;49111;51.028;4.218;2023-02-18T17:04:00;12.90;99.90
62912;DHT22;49111;51.028;4.218;2023-02-18T17:06:27;12.80;99.90
62912;DHT22;49111;51.028;4.218;2023-02-18T17:08:55;12.70;99.90
62912;DHT22;49111;51.028;4.218;2023-02-18T17:11:24;12.70;99.90
62912;DHT22;49111;51.028;4.218;2023-02-18T17:13:52;12.60;99.90
62912;DHT22;49111;51.028;4.218;2023-02-18T17:16:18;12.60;99.90
62912;DHT22;49111;51.028;4.218;2023-02-18T17:18:46;12.60;99.90
62912;DHT22;49111;51.028;4.218;2023-02-18T17:21:14;12.70;99.90
62912;DHT22;49111;51.028;4.218;2023-02-18T17:23:41;12.70;99.90
62912;DHT22;49111;51.028;4.218;2023-02-18T17:26:24;12.70;99.90
62912;DHT22;49111;51.028;4.218;2023-02-18T17:28:51;12.80;99.90
62912;DHT22;49111;51.028;4.218;2023-02-18T17:31:20;12.80;99.90
62912;DHT22;49111;51.028;4.218;2023-02-18T17:33:52;12.80;99.90
62912;DHT22;49111;51.028;4.218;2023-02-18T17:36:21;13.00;99.90
62912;DHT22;49111;51.028;4.218;2023-02-18T17:38:47;13.00;99.90
62912;DHT22;49111;51.028;4.218;2023-02-18T17:41:14;13.00;99.90
62912;DHT22;49111;51.028;4.218;2023-02-18T17:43:41;12.90;99.90
62912;DHT22;49111;51.028;4.218;2023-02-18T17:46:12;12.90;99.90
62912;DHT22;49111;51.028;4.218;2023-02-18T17:48:39;12.80;99.90
62912;DHT22;49111;51.028;4.218;2023-02-18T17:51:07;12.70;99.90
62912;DHT22;49111;51.028;4.218;2023-02-18T17:53:33;12.70;99.90
62912;DHT22;49111;51.028;4.218;2023-02-18T17:56:00;12.80;99.90
62912;DHT22;49111;51.028;4.218;2023-02-18T17:58:25;12.60;99.90
62912;DHT22;49111;51.028;4.218;2023-02-18T18:00:54;12.70;99.90
62912;DHT22;49111;51.028;4.218;2023-02-18T18:03:20;12.60;99.90
62912;DHT22;49111;51.028;4.218;2023-02-18T18:05:48;12.70;99.90
62912;DHT22;49111;51.028;4.218;2023-02-18T18:08:15;12.70;99.90
62912;DHT22;49111;51.028;4.218;2023-02-18T18:10:46;12.80;99.90
62912;DHT22;49111;51.028;4.218;2023-02-18T18:13:24;12.70;99.90
62912;DHT22;49111;51.028;4.218;2023-02-18T18:15:51;12.80;99.90
62912;DHT22;49111;51.028;4.218;2023-02-18T18:18:17;12.70;99.90
62912;DHT22;49111;51.028;4.218;2023-02-18T18:20:45;12.60;99.90
62912;DHT22;49111;51.028;4.218;2023-02-18T18:23:15;12.50;99.90
62912;DHT22;49111;51.028;4.218;2023-02-18T18:25:47;12.50;99.90
62912;DHT22;49111;51.028;4.218;2023-02-18T18:28:14;12.70;99.90
62912;DHT22;49111;51.028;4.218;2023-02-18T18:30:42;12.70;99.90
62912;DHT22;49111;51.028;4.218;2023-02-18T18:33:33;12.60;99.90
62912;DHT22;49111;51.028;4.218;2023-02-18T18:36:00;12.60;99.90
62912;DHT22;49111;51.028;4.218;2023-02-18T18:38:27;12.50;99.90
62912;DHT22;49111;51.028;4.218;2023-02-18T18:40:54;12.40;99.90
62912;DHT22;49111;51.028;4.218;2023-02-18T18:43:53;12.50;99.90
62912;DHT22;49111;51.028;4.218;2023-02-18T18:46:19;12.40;99.90
62912;DHT22;49111;51.028;4.218;2023-02-18T18:48:45;12.50;99.90
62912;DHT22;49111;51.028;4.218;2023-02-18T18:51:26;12.50;99.90
62912;DHT22;49111;51.028;4.218;2023-02-18T18:53:53;12.40;99.90
62912;DHT22;49111;51.028;4.218;2023-02-18T18:56:19;12.30;99.90
62912;DHT22;49111;51.028;4.218;2023-02-18T18:58:47;12.50;99.90
62912;DHT22;49111;51.028;4.218;2023-02-18T19:01:16;12.50;99.90
62912;DHT22;49111;51.028;4.218;2023-02-18T19:03:45;12.50;99.90
62912;DHT22;49111;51.028;4.218;2023-02-18T19:06:13;12.60;99.90
62912;DHT22;49111;51.028;4.218;2023-02-18T19:08:41;12.50;99.90
62912;DHT22;49111;51.028;4.218;2023-02-18T19:11:10;12.60;99.90
62912;DHT22;49111;51.028;4.218;2023-02-18T19:13:38;12.60;99.90
62912;DHT22;49111;51.028;4.218;2023-02-18T19:16:39;12.60;99.90
62912;DHT22;49111;51.028;4.218;2023-02-18T19:19:12;12.50;99.90
62912;DHT22;49111;51.028;4.218;2023-02-18T19:21:38;12.50;99.90
62912;DHT22;49111;51.028;4.218;2023-02-18T19:24:06;12.60;99.90
62912;DHT22;49111;51.028;4.218;2023-02-18T19:26:33;12.60;99.90
